sensor_id;sensor_type;location;lat;lon;timestamp;pressure;altitude;pressure_sealevel;temperature;humidity
16821;BME280;8527;49.740;6.604;2023-05-10T00:01:33;99135.06;;;13.50;100.00
16821;BME280;8527;49.740;6.604;2023-05-10T00:06:31;99123.19;;;13.59;100.00
16821;BME280;8527;49.740;6.604;2023-05-10T00:11:30;99128.31;;;13.61;100.00
16821;BME280;8527;49.740;6.604;2023-05-10T00:16:36;99128.72;;;13.64;100.00
16821;BME280;8527;49.740;6.604;2023-05-10T00:21:35;99133.00;;;13.52;100.00
16821;BME280;8527;49.740;6.604;2023-05-10T00:26:33;99124.63;;;13.48;100.00
16821;BME280;8527;49.740;6.604;2023-05-10T00:31:34;99123.38;;;13.44;100.00
16821;BME280;8527;49.740;6.604;2023-05-10T00:36:32;99126.88;;;13.45;100.00
16821;BME280;8527;49.740;6.604;2023-05-10T00:41:33;99125.66;;;13.47;100.00
16821;BME280;8527;49.740;6.604;2023-05-10T00:46:34;99127.63;;;13.39;100.00
16821;BME280;8527;49.740;6.604;2023-05-10T00:51:36;99122.72;;;13.42;100.00
16821;BME280;8527;49.740;6.604;2023-05-10T00:56:41;99132.56;;;13.42;100.00
16821;BME280;8527;49.740;6.604;2023-05-10T01:01:46;99128.03;;;13.29;100.00
16821;BME280;8527;49.740;6.604;2023-05-10T01:06:46;99130.91;;;13.27;100.00
16821;BME280;8527;49.740;6.604;2023-05-10T01:11:45;99134.56;;;13.19;100.00
16821;BME280;8527;49.740;6.604;2023-05-10T01:16:47;99135.19;;;13.15;100.00
16821;BME280;8527;49.740;6.604;2023-05-10T01:21:51;99140.28;;;13.09;100.00
16821;BME280;8527;49.740;6.604;2023-05-10T01:27:17;99135.09;;;12.94;100.00
16821;BME280;8527;49.740;6.604;2023-05-10T01:32:30;99125.69;;;12.92;100.00
16821;BME280;8527;49.740;6.604;2023-05-10T01:37:40;99125.47;;;12.93;100.00
16821;BME280;8527;49.740;6.604;2023-05-10T01:42:46;99134.69;;;12.91;100.00
16821;BME280;8527;49.740;6.604;2023-05-10T01:47:52;99146.97;;;12.85;100.00
16821;BME280;8527;49.740;6.604;2023-05-10T01:52:54;99148.34;;;12.81;100.00
16821;BME280;8527;49.740;6.604;2023-05-10T01:57:58;99146.50;;;12.75;100.00
16821;BME280;8527;49.740;6.604;2023-05-10T02:03:05;99150.44;;;12.86;100.00
16821;BME280;8527;49.740;6.604;2023-05-10T02:08:06;99148.16;;;12.83;100.00
16821;BME280;8527;49.740;6.604;2023-05-10T02:13:08;99167.03;;;12.88;100.00
16821;BME280;8527;49.740;6.604;2023-05-10T02:18:11;99162.34;;;12.90;100.00
16821;BME280;8527;49.740;6.604;2023-05-10T02:23:13;99168.94;;;13.01;100.00
16821;BME280;8527;49.740;6.604;2023-05-10T02:28:12;99175.06;;;13.01;100.00
16821;BME280;8527;49.740;6.604;2023-05-10T02:33:15;99163.81;;;13.06;100.00
16821;BME280;8527;49.740;6.604;2023-05-10T02:38:14;99158.88;;;12.96;100.00
16821;BME280;8527;49.740;6.604;2023-05-10T02:43:16;99160.09;;;12.93;100.00
16821;BME280;8527;49.740;6.604;2023-05-10T02:48:18;99157.22;;;12.95;100.00
16821;BME280;8527;49.740;6.604;2023-05-10T02:53:21;99156.41;;;12.94;100.00
16821;BME280;8527;49.740;6.604;2023-05-10T02:58:26;99153.94;;;12.93;100.00
16821;BME280;8527;49.740;6.604;2023-05-10T03:03:28;99157.81;;;12.90;100.00
16821;BME280;8527;49.740;6.604;2023-05-10T03:08:27;99155.16;;;12.90;100.00
16821;BME280;8527;49.740;6.604;2023-05-10T03:13:34;99156.81;;;12.91;100.00
16821;BME280;8527;49.740;6.604;2023-05-10T03:18:37;99161.31;;;12.91;100.00
16821;BME280;8527;49.740;6.604;2023-05-10T03:23:45;99167.69;;;12.97;100.00
16821;BME280;8527;49.740;6.604;2023-05-10T03:28:50;99169.72;;;12.94;100.00
16821;BME280;8527;49.740;6.604;2023-05-10T03:33:53;99176.72;;;13.02;100.00
16821;BME280;8527;49.740;6.604;2023-05-10T03:38:51;99175.06;;;13.01;100.00
16821;BME280;8527;49.740;6.604;2023-05-10T03:43:51;99179.41;;;13.02;100.00
16821;BME280;8527;49.740;6.604;2023-05-10T03:48:49;99180.81;;;13.05;100.00
16821;BME280;8527;49.740;6.604;2023-05-10T03:53:50;99178.78;;;13.07;100.00
16821;BME280;8527;49.740;6.604;2023-05-10T03:58:48;99180.22;;;13.09;100.00
16821;BME280;8527;49.740;6.604;2023-05-10T04:03:53;99185.16;;;13.13;100.00
16821;BME280;8527;49.740;6.604;2023-05-10T04:08:54;99168.97;;;13.14;100.00
16821;BME280;8527;49.740;6.604;2023-05-10T04:14:00;99165.72;;;13.19;100.00
16821;BME280;8527;49.740;6.604;2023-05-10T04:18:59;99167.34;;;13.13;100.00
16821;BME280;8527;49.740;6.604;2023-05-10T04:23:59;99169.41;;;13.18;100.00
16821;BME280;8527;49.740;6.604;2023-05-10T04:29:02;99174.50;;;13.13;100.00
16821;BME280;8527;49.740;6.604;2023-05-10T04:34:00;99171.22;;;13.11;100.00
16821;BME280;8527;49.740;6.604;2023-05-10T04:39:02;99178.00;;;13.20;100.00
16821;BME280;8527;49.740;6.604;2023-05-10T04:44:00;99177.19;;;13.19;100.00
16821;BME280;8527;49.740;6.604;2023-05-10T04:49:01;99203.78;;;13.13;100.00
16821;BME280;8527;49.740;6.604;2023-05-10T04:54:03;99200.69;;;13.02;100.00
16821;BME280;8527;49.740;6.604;2023-05-10T04:59:01;99214.97;;;12.94;100.00
16821;BME280;8527;49.740;6.604;2023-05-10T05:04:03;99221.75;;;12.97;100.00
16821;BME280;8527;49.740;6.604;2023-05-10T05:09:05;99227.69;;;12.99;100.00
16821;BME280;8527;49.740;6.604;2023-05-10T05:14:05;99223.44;;;13.12;100.00
16821;BME280;8527;49.740;6.604;2023-05-10T05:19:03;99239.69;;;13.17;100.00
16821;BME280;8527;49.740;6.604;2023-05-10T05:24:05;99250.69;;;13.14;100.00
16821;BME280;8527;49.740;6.604;2023-05-10T05:29:04;99250.16;;;13.25;100.00
16821;BME280;8527;49.740;6.604;2023-05-10T05:34:02;99251.13;;;13.17;100.00
16821;BME280;8527;49.740;6.604;2023-05-10T05:39:00;99256.06;;;13.20;100.00
16821;BME280;8527;49.740;6.604;2023-05-10T05:44:04;99260.41;;;13.21;100.00
16821;BME280;8527;49.740;6.604;2023-05-10T05:49:03;99266.16;;;13.32;100.00
16821;BME280;8527;49.740;6.604;2023-05-10T05:54:01;99270.91;;;13.43;100.00
16821;BME280;8527;49.740;6.604;2023-05-10T05:59:00;99262.78;;;13.52;100.00
16821;BME280;8527;49.740;6.604;2023-05-10T06:04:01;99275.09;;;13.59;100.00
16821;BME280;8527;49.740;6.604;2023-05-10T06:09:00;99281.28;;;13.60;100.00
16821;BME280;8527;49.740;6.604;2023-05-10T06:13:58;99284.03;;;13.38;100.00
16821;BME280;8527;49.740;6.604;2023-05-10T06:18:57;99296.38;;;13.46;100.00
16821;BME280;8527;49.740;6.604;2023-05-10T06:23:58;99297.22;;;13.46;99.91
16821;BME280;8527;49.740;6.604;2023-05-10T06:28:56;99304.13;;;13.41;99.88
16821;BME280;8527;49.740;6.604;2023-05-10T06:33:57;99311.41;;;13.60;98.43
16821;BME280;8527;49.740;6.604;2023-05-10T06:38:58;99308.34;;;13.70;97.80
16821;BME280;8527;49.740;6.604;2023-05-10T06:43:56;99320.66;;;13.71;97.94
16821;BME280;8527;49.740;6.604;2023-05-10T06:48:56;99321.78;;;13.97;97.75
16821;BME280;8527;49.740;6.604;2023-05-10T06:53:54;99327.91;;;13.91;96.50
16821;BME280;8527;49.740;6.604;2023-05-10T06:58:55;99331.75;;;13.75;95.12
16821;BME280;8527;49.740;6.604;2023-05-10T07:03:53;99336.47;;;13.73;94.61
16821;BME280;8527;49.740;6.604;2023-05-10T07:08:59;99336.50;;;13.86;94.42
16821;BME280;8527;49.740;6.604;2023-05-10T07:14:04;99345.84;;;14.17;92.64
16821;BME280;8527;49.740;6.604;2023-05-10T07:19:05;99335.75;;;14.13;91.79
16821;BME280;8527;49.740;6.604;2023-05-10T07:24:03;99342.97;;;14.39;92.24
16821;BME280;8527;49.740;6.604;2023-05-10T07:29:04;99345.03;;;14.37;90.63
16821;BME280;8527;49.740;6.604;2023-05-10T07:34:03;99339.69;;;14.51;90.15
16821;BME280;8527;49.740;6.604;2023-05-10T07:39:02;99340.31;;;14.66;90.64
16821;BME280;8527;49.740;6.604;2023-05-10T07:44:05;99351.81;;;14.53;89.50
16821;BME280;8527;49.740;6.604;2023-05-10T07:49:07;99354.06;;;14.49;90.36
16821;BME280;8527;49.740;6.604;2023-05-10T07:54:05;99364.13;;;14.47;88.87
16821;BME280;8527;49.740;6.604;2023-05-10T07:59:07;99358.38;;;14.51;87.66
16821;BME280;8527;49.740;6.604;2023-05-10T08:04:05;99353.03;;;14.37;88.04
16821;BME280;8527;49.740;6.604;2023-05-10T08:09:04;99357.59;;;14.63;88.92
16821;BME280;8527;49.740;6.604;2023-05-10T08:14:02;99350.81;;;15.01;88.02
16821;BME280;8527;49.740;6.604;2023-05-10T08:19:03;99353.16;;;15.50;86.16
16821;BME280;8527;49.740;6.604;2023-05-10T08:24:04;99346.59;;;15.98;84.84
16821;BME280;8527;49.740;6.604;2023-05-10T08:29:03;99347.75;;;16.16;82.73
16821;BME280;8527;49.740;6.604;2023-05-10T08:34:05;99359.06;;;15.66;80.97
16821;BME280;8527;49.740;6.604;2023-05-10T08:39:04;99364.19;;;15.74;83.38
16821;BME280;8527;49.740;6.604;2023-05-10T08:44:06;99375.03;;;15.27;88.81
16821;BME280;8527;49.740;6.604;2023-05-10T08:49:11;99396.38;;;14.53;93.08
16821;BME280;8527;49.740;6.604;2023-05-10T08:54:14;99396.34;;;14.39;91.13
16821;BME280;8527;49.740;6.604;2023-05-10T08:59:13;99400.06;;;14.45;89.19
16821;BME280;8527;49.740;6.604;2023-05-10T09:04:14;99408.06;;;14.45;88.68
16821;BME280;8527;49.740;6.604;2023-05-10T09:09:12;99399.03;;;14.66;87.88
16821;BME280;8527;49.740;6.604;2023-05-10T09:14:12;99402.81;;;14.85;87.87
16821;BME280;8527;49.740;6.604;2023-05-10T09:19:14;99397.84;;;15.09;87.71
16821;BME280;8527;49.740;6.604;2023-05-10T09:24:15;99409.16;;;15.31;88.29
16821;BME280;8527;49.740;6.604;2023-05-10T09:29:16;99405.84;;;15.16;88.28
16821;BME280;8527;49.740;6.604;2023-05-10T09:34:20;99416.16;;;15.12;87.43
16821;BME280;8527;49.740;6.604;2023-05-10T09:39:20;99418.00;;;14.85;89.50
16821;BME280;8527;49.740;6.604;2023-05-10T09:44:21;99424.56;;;15.02;87.49
16821;BME280;8527;49.740;6.604;2023-05-10T09:49:23;99433.81;;;15.20;85.50
16821;BME280;8527;49.740;6.604;2023-05-10T09:54:24;99430.13;;;15.28;84.34
16821;BME280;8527;49.740;6.604;2023-05-10T09:59:25;99438.53;;;15.45;83.46
16821;BME280;8527;49.740;6.604;2023-05-10T10:04:30;99432.13;;;15.59;82.96
16821;BME280;8527;49.740;6.604;2023-05-10T10:09:28;99432.06;;;15.80;81.57
16821;BME280;8527;49.740;6.604;2023-05-10T10:14:30;99433.38;;;16.16;80.93
16821;BME280;8527;49.740;6.604;2023-05-10T10:19:33;99436.72;;;16.05;80.05
16821;BME280;8527;49.740;6.604;2023-05-10T10:24:31;99438.66;;;15.70;79.70
16821;BME280;8527;49.740;6.604;2023-05-10T10:29:34;99434.16;;;15.71;81.21
16821;BME280;8527;49.740;6.604;2023-05-10T10:34:43;99431.09;;;15.54;80.09
16821;BME280;8527;49.740;6.604;2023-05-10T10:39:41;99419.78;;;15.58;77.91
16821;BME280;8527;49.740;6.604;2023-05-10T10:44:40;99428.41;;;15.60;77.89
16821;BME280;8527;49.740;6.604;2023-05-10T10:49:51;99434.94;;;15.78;76.17
16821;BME280;8527;49.740;6.604;2023-05-10T10:54:52;99424.22;;;15.85;75.95
16821;BME280;8527;49.740;6.604;2023-05-10T10:59:53;99427.88;;;16.04;75.54
16821;BME280;8527;49.740;6.604;2023-05-10T11:04:54;99430.31;;;16.12;73.91
16821;BME280;8527;49.740;6.604;2023-05-10T11:09:53;99442.34;;;16.67;74.43
16821;BME280;8527;49.740;6.604;2023-05-10T11:14:52;99427.00;;;17.13;73.49
16821;BME280;8527;49.740;6.604;2023-05-10T11:20:13;99428.84;;;17.57;72.80
16821;BME280;8527;49.740;6.604;2023-05-10T11:25:18;99434.97;;;17.64;69.92
16821;BME280;8527;49.740;6.604;2023-05-10T11:30:19;99432.34;;;17.57;68.28
16821;BME280;8527;49.740;6.604;2023-05-10T11:35:22;99432.47;;;18.19;67.11
16821;BME280;8527;49.740;6.604;2023-05-10T11:40:21;99432.06;;;18.34;64.97
16821;BME280;8527;49.740;6.604;2023-05-10T11:45:20;99429.19;;;18.17;63.57
16821;BME280;8527;49.740;6.604;2023-05-10T11:50:24;99430.41;;;18.21;62.64
16821;BME280;8527;49.740;6.604;2023-05-10T11:55:23;99421.47;;;18.39;62.68
16821;BME280;8527;49.740;6.604;2023-05-10T12:00:21;99435.72;;;18.09;62.68
16821;BME280;8527;49.740;6.604;2023-05-10T12:05:23;99436.13;;;18.24;62.82
16821;BME280;8527;49.740;6.604;2023-05-10T12:10:26;99439.94;;;18.47;63.53
16821;BME280;8527;49.740;6.604;2023-05-10T12:15:29;99431.75;;;18.73;63.81
16821;BME280;8527;49.740;6.604;2023-05-10T12:20:31;99431.28;;;18.33;63.50
16821;BME280;8527;49.740;6.604;2023-05-10T12:25:37;99432.06;;;18.76;61.61
16821;BME280;8527;49.740;6.604;2023-05-10T12:30:36;99442.66;;;18.90;63.43
16821;BME280;8527;49.740;6.604;2023-05-10T12:35:47;99446.00;;;18.42;62.51
16821;BME280;8527;49.740;6.604;2023-05-10T12:40:46;99449.41;;;18.19;63.53
16821;BME280;8527;49.740;6.604;2023-05-10T12:45:45;99456.22;;;18.52;62.47
16821;BME280;8527;49.740;6.604;2023-05-10T12:50:49;99450.31;;;18.44;61.06
16821;BME280;8527;49.740;6.604;2023-05-10T12:55:50;99448.94;;;18.41;61.03
16821;BME280;8527;49.740;6.604;2023-05-10T13:00:50;99447.09;;;18.23;60.18
16821;BME280;8527;49.740;6.604;2023-05-10T13:05:51;99439.47;;;18.38;59.40
16821;BME280;8527;49.740;6.604;2023-05-10T13:10:50;99438.97;;;18.30;59.64
16821;BME280;8527;49.740;6.604;2023-05-10T13:15:48;99446.44;;;18.58;59.35
16821;BME280;8527;49.740;6.604;2023-05-10T13:20:46;99447.03;;;18.72;58.94
16821;BME280;8527;49.740;6.604;2023-05-10T13:25:50;99432.38;;;18.56;56.44
16821;BME280;8527;49.740;6.604;2023-05-10T13:30:48;99432.03;;;19.07;57.81
16821;BME280;8527;49.740;6.604;2023-05-10T13:35:46;99426.19;;;19.34;57.36
16821;BME280;8527;49.740;6.604;2023-05-10T13:40:45;99418.38;;;19.32;57.83
16821;BME280;8527;49.740;6.604;2023-05-10T13:45:46;99421.16;;;19.02;56.63
16821;BME280;8527;49.740;6.604;2023-05-10T13:50:47;99404.47;;;19.00;57.11
16821;BME280;8527;49.740;6.604;2023-05-10T13:55:45;99414.69;;;18.79;59.15
16821;BME280;8527;49.740;6.604;2023-05-10T14:00:46;99400.31;;;18.85;57.30
16821;BME280;8527;49.740;6.604;2023-05-10T14:05:45;99391.34;;;19.15;58.76
16821;BME280;8527;49.740;6.604;2023-05-10T14:10:46;99388.06;;;18.77;58.47
16821;BME280;8527;49.740;6.604;2023-05-10T14:15:52;99384.75;;;18.63;57.90
16821;BME280;8527;49.740;6.604;2023-05-10T14:20:51;99383.72;;;18.88;57.28
16821;BME280;8527;49.740;6.604;2023-05-10T14:25:50;99380.81;;;18.90;56.76
16821;BME280;8527;49.740;6.604;2023-05-10T14:30:51;99381.97;;;18.94;53.33
16821;BME280;8527;49.740;6.604;2023-05-10T14:35:53;99378.53;;;18.51;52.30
16821;BME280;8527;49.740;6.604;2023-05-10T14:40:54;99376.72;;;18.33;53.46
16821;BME280;8527;49.740;6.604;2023-05-10T14:45:55;99371.19;;;18.16;54.89
16821;BME280;8527;49.740;6.604;2023-05-10T14:50:54;99375.63;;;18.52;54.99
16821;BME280;8527;49.740;6.604;2023-05-10T14:55:53;99367.94;;;18.68;53.98
16821;BME280;8527;49.740;6.604;2023-05-10T15:00:51;99373.38;;;18.49;51.71
16821;BME280;8527;49.740;6.604;2023-05-10T15:05:55;99368.09;;;18.42;54.73
16821;BME280;8527;49.740;6.604;2023-05-10T15:10:54;99373.78;;;18.22;56.03
16821;BME280;8527;49.740;6.604;2023-05-10T15:15:53;99370.78;;;18.42;55.89
16821;BME280;8527;49.740;6.604;2023-05-10T15:20:54;99371.34;;;18.33;55.96
16821;BME280;8527;49.740;6.604;2023-05-10T15:25:55;99374.63;;;18.04;55.77
16821;BME280;8527;49.740;6.604;2023-05-10T15:30:58;99369.19;;;18.11;55.90
16821;BME280;8527;49.740;6.604;2023-05-10T15:36:00;99371.91;;;18.23;55.26
16821;BME280;8527;49.740;6.604;2023-05-10T15:40:59;99383.69;;;18.64;56.65
16821;BME280;8527;49.740;6.604;2023-05-10T15:45:57;99387.53;;;18.56;55.38
16821;BME280;8527;49.740;6.604;2023-05-10T15:51:01;99388.22;;;18.64;56.10
16821;BME280;8527;49.740;6.604;2023-05-10T15:56:02;99394.19;;;18.54;57.19
16821;BME280;8527;49.740;6.604;2023-05-10T16:01:03;99389.41;;;18.25;57.18
16821;BME280;8527;49.740;6.604;2023-05-10T16:06:05;99392.81;;;18.21;57.21
16821;BME280;8527;49.740;6.604;2023-05-10T16:11:04;99399.22;;;18.01;57.50
16821;BME280;8527;49.740;6.604;2023-05-10T16:16:05;99397.00;;;17.98;56.57
16821;BME280;8527;49.740;6.604;2023-05-10T16:21:07;99398.97;;;17.72;56.73
16821;BME280;8527;49.740;6.604;2023-05-10T16:26:05;99389.38;;;17.64;57.38
16821;BME280;8527;49.740;6.604;2023-05-10T16:31:04;99392.31;;;17.75;56.88
16821;BME280;8527;49.740;6.604;2023-05-10T16:36:07;99393.69;;;17.65;56.41
16821;BME280;8527;49.740;6.604;2023-05-10T16:41:06;99401.34;;;17.43;57.40
16821;BME280;8527;49.740;6.604;2023-05-10T16:46:09;99396.19;;;17.60;57.82
16821;BME280;8527;49.740;6.604;2023-05-10T16:51:12;99393.22;;;17.68;58.24
16821;BME280;8527;49.740;6.604;2023-05-10T16:56:11;99391.50;;;17.55;57.67
16821;BME280;8527;49.740;6.604;2023-05-10T17:01:12;99401.50;;;17.48;57.65
16821;BME280;8527;49.740;6.604;2023-05-10T17:06:13;99405.88;;;17.42;58.65
16821;BME280;8527;49.740;6.604;2023-05-10T17:11:14;99412.88;;;17.43;61.69
16821;BME280;8527;49.740;6.604;2023-05-10T17:16:14;99419.81;;;17.33;60.35
16821;BME280;8527;49.740;6.604;2023-05-10T17:21:15;99424.69;;;17.17;56.34
16821;BME280;8527;49.740;6.604;2023-05-10T17:26:17;99421.09;;;16.98;56.25
16821;BME280;8527;49.740;6.604;2023-05-10T17:31:16;99426.78;;;17.15;57.30
16821;BME280;8527;49.740;6.604;2023-05-10T17:36:17;99427.81;;;17.14;57.40
16821;BME280;8527;49.740;6.604;2023-05-10T17:41:16;99431.25;;;17.21;57.79
16821;BME280;8527;49.740;6.604;2023-05-10T17:46:16;99443.81;;;17.46;57.42
16821;BME280;8527;49.740;6.604;2023-05-10T17:51:17;99450.44;;;17.18;57.99
16821;BME280;8527;49.740;6.604;2023-05-10T17:56:16;99454.81;;;16.87;57.98
16821;BME280;8527;49.740;6.604;2023-05-10T18:01:17;99464.72;;;16.80;59.74
16821;BME280;8527;49.740;6.604;2023-05-10T18:06:18;99472.53;;;16.56;60.43
16821;BME280;8527;49.740;6.604;2023-05-10T18:11:19;99465.84;;;16.33;61.02
16821;BME280;8527;49.740;6.604;2023-05-10T18:16:17;99466.09;;;16.18;62.16
16821;BME280;8527;49.740;6.604;2023-05-10T18:21:18;99464.28;;;16.12;62.72
16821;BME280;8527;49.740;6.604;2023-05-10T18:26:17;99473.19;;;15.85;63.31
16821;BME280;8527;49.740;6.604;2023-05-10T18:31:15;99478.78;;;15.64;64.29
16821;BME280;8527;49.740;6.604;2023-05-10T18:36:14;99485.00;;;15.30;64.75
16821;BME280;8527;49.740;6.604;2023-05-10T18:41:18;99481.72;;;15.15;65.26
16821;BME280;8527;49.740;6.604;2023-05-10T18:46:20;99487.25;;;14.80;64.91
16821;BME280;8527;49.740;6.604;2023-05-10T18:51:18;99475.97;;;15.18;64.61
16821;BME280;8527;49.740;6.604;2023-05-10T18:56:19;99486.44;;;15.06;65.11
16821;BME280;8527;49.740;6.604;2023-05-10T19:01:18;99493.13;;;14.61;65.99
16821;BME280;8527;49.740;6.604;2023-05-10T19:06:17;99504.44;;;14.63;66.03
16821;BME280;8527;49.740;6.604;2023-05-10T19:11:15;99502.75;;;14.56;65.88
16821;BME280;8527;49.740;6.604;2023-05-10T19:16:16;99507.06;;;14.50;65.55
16821;BME280;8527;49.740;6.604;2023-05-10T19:21:15;99514.63;;;14.46;67.76
16821;BME280;8527;49.740;6.604;2023-05-10T19:26:16;99524.66;;;14.38;69.23
16821;BME280;8527;49.740;6.604;2023-05-10T19:31:18;99531.53;;;14.12;70.40
16821;BME280;8527;49.740;6.604;2023-05-10T19:36:17;99539.66;;;13.97;70.89
16821;BME280;8527;49.740;6.604;2023-05-10T19:41:15;99547.06;;;13.73;72.29
16821;BME280;8527;49.740;6.604;2023-05-10T19:46:14;99551.06;;;13.55;72.92
16821;BME280;8527;49.740;6.604;2023-05-10T19:51:15;99561.22;;;13.45;73.55
16821;BME280;8527;49.740;6.604;2023-05-10T19:56:16;99564.06;;;13.21;74.84
16821;BME280;8527;49.740;6.604;2023-05-10T20:01:15;99565.06;;;13.20;75.62
16821;BME280;8527;49.740;6.604;2023-05-10T20:06:16;99559.41;;;12.87;76.40
16821;BME280;8527;49.740;6.604;2023-05-10T20:11:15;99566.28;;;12.81;75.50
16821;BME280;8527;49.740;6.604;2023-05-10T20:16:24;99567.94;;;12.60;77.29
16821;BME280;8527;49.740;6.604;2023-05-10T20:21:27;99564.25;;;12.46;77.72
16821;BME280;8527;49.740;6.604;2023-05-10T20:26:27;99563.16;;;12.26;79.50
16821;BME280;8527;49.740;6.604;2023-05-10T20:31:26;99560.69;;;12.09;79.26
16821;BME280;8527;49.740;6.604;2023-05-10T20:36:27;99565.81;;;11.95;81.09
16821;BME280;8527;49.740;6.604;2023-05-10T20:41:26;99563.41;;;11.86;80.10
16821;BME280;8527;49.740;6.604;2023-05-10T20:46:27;99562.50;;;11.93;79.48
16821;BME280;8527;49.740;6.604;2023-05-10T20:51:28;99567.56;;;11.88;79.83
16821;BME280;8527;49.740;6.604;2023-05-10T20:56:27;99572.94;;;11.80;82.30
16821;BME280;8527;49.740;6.604;2023-05-10T21:01:28;99565.34;;;11.77;82.10
16821;BME280;8527;49.740;6.604;2023-05-10T21:06:32;99556.38;;;11.54;80.54
16821;BME280;8527;49.740;6.604;2023-05-10T21:11:32;99555.56;;;11.54;81.44
16821;BME280;8527;49.740;6.604;2023-05-10T21:16:32;99553.28;;;11.28;81.67
16821;BME280;8527;49.740;6.604;2023-05-10T21:21:33;99558.25;;;11.31;83.19
16821;BME280;8527;49.740;6.604;2023-05-10T21:26:35;99552.69;;;11.17;83.96
16821;BME280;8527;49.740;6.604;2023-05-10T21:31:33;99552.41;;;11.12;84.01
16821;BME280;8527;49.740;6.604;2023-05-10T21:36:34;99556.00;;;10.96;85.42
16821;BME280;8527;49.740;6.604;2023-05-10T21:41:32;99560.06;;;10.83;84.28
16821;BME280;8527;49.740;6.604;2023-05-10T21:46:36;99552.84;;;10.69;84.20
16821;BME280;8527;49.740;6.604;2023-05-10T21:51:37;99569.13;;;10.66;85.92
16821;BME280;8527;49.740;6.604;2023-05-10T21:56:35;99569.66;;;10.53;86.55
16821;BME280;8527;49.740;6.604;2023-05-10T22:01:34;99569.38;;;10.48;87.48
16821;BME280;8527;49.740;6.604;2023-05-10T22:06:32;99565.84;;;10.55;85.61
16821;BME280;8527;49.740;6.604;2023-05-10T22:11:33;99572.16;;;10.54;86.79
16821;BME280;8527;49.740;6.604;2023-05-10T22:16:31;99582.31;;;10.34;85.25
16821;BME280;8527;49.740;6.604;2023-05-10T22:21:30;99576.69;;;10.29;87.71
16821;BME280;8527;49.740;6.604;2023-05-10T22:26:28;99583.53;;;10.15;87.18
16821;BME280;8527;49.740;6.604;2023-05-10T22:31:29;99584.03;;;10.19;86.51
16821;BME280;8527;49.740;6.604;2023-05-10T22:36:28;99588.34;;;10.11;88.06
16821;BME280;8527;49.740;6.604;2023-05-10T22:41:32;99587.19;;;10.06;88.04
16821;BME280;8527;49.740;6.604;2023-05-10T22:46:34;99594.34;;;10.05;88.71
16821;BME280;8527;49.740;6.604;2023-05-10T22:51:37;99603.59;;;10.09;87.90
16821;BME280;8527;49.740;6.604;2023-05-10T22:56:35;99602.78;;;9.92;88.50
16821;BME280;8527;49.740;6.604;2023-05-10T23:01:36;99609.28;;;9.81;91.31
16821;BME280;8527;49.740;6.604;2023-05-10T23:06:35;99616.38;;;9.81;89.80
16821;BME280;8527;49.740;6.604;2023-05-10T23:11:36;99605.78;;;9.81;88.41
16821;BME280;8527;49.740;6.604;2023-05-10T23:16:43;99615.56;;;9.80;90.94
16821;BME280;8527;49.740;6.604;2023-05-10T23:21:41;99614.72;;;9.80;89.63
16821;BME280;8527;49.740;6.604;2023-05-10T23:26:42;99614.06;;;9.78;90.56
16821;BME280;8527;49.740;6.604;2023-05-10T23:31:47;99612.41;;;9.68;89.96
16821;BME280;8527;49.740;6.604;2023-05-10T23:36:46;99610.09;;;9.65;90.60
16821;BME280;8527;49.740;6.604;2023-05-10T23:41:48;99608.94;;;9.60;92.90
16821;BME280;8527;49.740;6.604;2023-05-10T23:46:49;99603.66;;;9.60;92.06
16821;BME280;8527;49.740;6.604;2023-05-10T23:51:47;99599.66;;;9.72;92.36
16821;BME280;8527;49.740;6.604;2023-05-10T23:56:46;99603.47;;;9.78;92.47
